Time;durP1;ratioP1;P1;durP2;ratioP2;P2;SDS_P1;SDS_P2;PMS_P1;PMS_P2;Temp;Humidity;BMP_temperature;BMP_pressure;BME280_temperature;BME280_humidity;BME280_pressure;Samples;Min_cycle;Max_cycle;Signal;HPM_P1;HPM_P2
2022/08/18 00:01:58;;;;;;;;;;;;;;;31.42;26.69;98644.31;4516198;31;34206;-83
2022/08/18 00:04:26;;;;;;;;;;;;;;;31.72;26.56;98640.94;4515927;31;33246;-83
2022/08/18 00:07:03;;;;;;;;;;;;;;;31.41;27.53;98647.97;4511527;31;33853;-83
2022/08/18 00:09:30;;;;;;;;;;;;;;;31.62;27.81;98644.50;4499992;31;34165;-83
2022/08/18 00:12:00;;;;;;;;;;;;;;;31.58;27.87;98638.56;4500446;31;33756;-83
2022/08/18 00:14:27;;;;;;;;;;;;;;;31.49;28.12;98644.69;4500205;31;33566;-83
2022/08/18 00:16:54;;;;;;;;;;;;;;;31.59;28.02;98640.25;4499800;31;34467;-83
2022/08/18 00:19:22;;;;;;;;;;;;;;;31.89;27.60;98642.25;4500035;31;34255;-83
2022/08/18 00:22:10;;;;;;;;;;;;;;;32.10;27.33;98628.03;4499919;31;34755;-83
2022/08/18 00:24:45;;;;;;;;;;;;;;;31.90;27.61;98633.25;4498817;31;33311;-83
2022/08/18 00:27:25;;;;;;;;;;;;;;;32.09;27.63;98637.91;4498650;31;34215;-83
2022/08/18 00:29:55;;;;;;;;;;;;;;;32.00;27.73;98637.81;4501476;31;34570;-83
2022/08/18 00:32:24;;;;;;;;;;;;;;;32.23;27.45;98639.41;4515472;31;34473;-83
2022/08/18 00:34:52;;;;;;;;;;;;;;;31.99;27.97;98636.97;4514633;31;33570;-83
2022/08/18 00:37:20;;;;;;;;;;;;;;;32.04;27.99;98639.28;4514377;31;34252;-83
2022/08/18 00:39:49;;;;;;;;;;;;;;;32.15;27.96;98633.84;4515796;31;34111;-83
2022/08/18 00:42:18;;;;;;;;;;;;;;;32.06;28.19;98631.97;4515497;31;33913;-83
2022/08/18 00:44:58;;;;;;;;;;;;;;;32.16;28.30;98639.09;4515840;31;32847;-83
2022/08/18 00:47:28;;;;;;;;;;;;;;;32.12;28.43;98639.47;4515534;31;34297;-83
2022/08/18 00:50:15;;;;;;;;;;;;;;;32.04;28.89;98641.94;4515817;31;34357;-83
2022/08/18 00:52:44;;;;;;;;;;;;;;;32.01;29.08;98647.56;4514146;31;34977;-83
2022/08/18 00:55:11;;;;;;;;;;;;;;;31.95;29.69;98652.47;4514458;31;34205;-83
2022/08/18 00:57:38;;;;;;;;;;;;;;;31.98;29.94;98657.59;4515578;31;34424;-83
2022/08/18 01:00:11;;;;;;;;;;;;;;;31.89;30.94;98652.97;4514678;31;35126;-83
2022/08/18 01:02:42;;;;;;;;;;;;;;;32.05;30.61;98649.88;4514455;31;34918;-83
2022/08/18 01:05:29;;;;;;;;;;;;;;;30.28;35.59;98651.50;4514159;31;33070;-83
2022/08/18 01:07:56;;;;;;;;;;;;;;;30.41;35.57;98649.59;4515497;31;34644;-83
2022/08/18 01:10:24;;;;;;;;;;;;;;;30.24;36.17;98655.41;4515764;31;34047;-83
2022/08/18 01:12:52;;;;;;;;;;;;;;;30.84;34.96;98654.31;4514301;31;33791;-82
2022/08/18 01:15:20;;;;;;;;;;;;;;;29.54;37.75;98662.28;4514186;31;33790;-83
2022/08/18 01:23:28;;;;;;;;;;;;;;;30.15;36.96;98664.91;4515341;31;35307;-83
2022/08/18 01:25:59;;;;;;;;;;;;;;;30.75;35.66;98668.41;4515581;31;33257;-83
2022/08/18 01:28:26;;;;;;;;;;;;;;;31.14;34.85;98671.56;4515363;31;33879;-83
2022/08/18 01:30:57;;;;;;;;;;;;;;;31.22;34.94;98666.50;4515190;31;34421;-83
2022/08/18 01:33:31;;;;;;;;;;;;;;;31.57;34.06;98668.16;4514250;31;34390;-83
2022/08/18 01:35:59;;;;;;;;;;;;;;;30.92;35.75;98665.28;4514462;31;33937;-83
2022/08/18 01:38:26;;;;;;;;;;;;;;;31.38;34.96;98668.81;4515479;31;34375;-83
2022/08/18 01:40:54;;;;;;;;;;;;;;;31.59;34.54;98676.91;4515490;31;34860;-82
2022/08/18 01:43:41;;;;;;;;;;;;;;;31.00;36.05;98675.37;4515440;31;34306;-82
2022/08/18 01:46:08;;;;;;;;;;;;;;;30.11;37.92;98665.25;4515469;31;33683;-83
2022/08/18 01:48:36;;;;;;;;;;;;;;;31.39;35.33;98673.19;4515588;31;33870;-82
2022/08/18 01:51:04;;;;;;;;;;;;;;;30.75;36.72;98674.59;4515229;31;34112;-82
2022/08/18 01:53:32;;;;;;;;;;;;;;;30.95;36.31;98677.53;4513987;31;34189;-82
2022/08/18 01:55:59;;;;;;;;;;;;;;;31.29;35.70;98669.50;4515544;31;32814;-82
2022/08/18 01:58:26;;;;;;;;;;;;;;;30.74;36.88;98683.63;4515033;31;34847;-82
2022/08/18 02:01:00;;;;;;;;;;;;;;;31.04;36.31;98675.97;4515216;31;34423;-82
2022/08/18 02:03:29;;;;;;;;;;;;;;;29.61;39.32;98683.25;4514865;31;34303;-83
2022/08/18 02:05:58;;;;;;;;;;;;;;;29.71;38.96;98684.28;4514185;31;33546;-85
2022/08/18 02:08:25;;;;;;;;;;;;;;;30.60;37.25;98680.28;4515019;31;34805;-82
2022/08/18 02:10:57;;;;;;;;;;;;;;;31.14;36.07;98667.09;4512612;31;35266;-83
2022/08/18 02:13:25;;;;;;;;;;;;;;;30.79;36.78;98667.19;4515131;31;33900;-82
2022/08/18 02:15:52;;;;;;;;;;;;;;;30.43;37.54;98679.75;4515087;31;33207;-82
2022/08/18 02:18:20;;;;;;;;;;;;;;;30.60;37.14;98674.91;4515312;31;34177;-82
2022/08/18 02:21:09;;;;;;;;;;;;;;;31.37;35.54;98667.97;4515192;31;34370;-82
2022/08/18 02:23:38;;;;;;;;;;;;;;;31.38;35.53;98675.00;4514996;31;34248;-82
2022/08/18 02:26:13;;;;;;;;;;;;;;;30.97;36.49;98665.75;4515246;31;33341;-82
2022/08/18 02:28:40;;;;;;;;;;;;;;;31.38;35.55;98675.00;4513932;31;34742;-82
2022/08/18 02:31:12;;;;;;;;;;;;;;;31.00;36.34;98678.03;4514913;31;34413;-83
2022/08/18 02:33:40;;;;;;;;;;;;;;;31.69;34.94;98678.72;4514815;31;34394;-82
2022/08/18 02:36:18;;;;;;;;;;;;;;;31.78;34.75;98682.47;4514930;31;33329;-82
2022/08/18 02:38:45;;;;;;;;;;;;;;;32.04;34.22;98676.81;4514818;31;34239;-82
2022/08/18 02:41:27;;;;;;;;;;;;;;;31.96;34.21;98672.94;4514949;31;34990;-82
2022/08/18 02:43:56;;;;;;;;;;;;;;;31.47;35.49;98678.75;4515036;31;34146;-82
2022/08/18 02:46:24;;;;;;;;;;;;;;;32.01;34.34;98677.06;4515003;31;33535;-82
2022/08/18 02:48:56;;;;;;;;;;;;;;;32.12;34.13;98677.00;4514987;31;34411;-82
2022/08/18 02:51:24;;;;;;;;;;;;;;;32.31;33.69;98673.63;4514794;31;34270;-83
2022/08/18 02:53:52;;;;;;;;;;;;;;;32.35;33.52;98680.44;4514689;31;34593;-82
2022/08/18 02:59:07;;;;;;;;;;;;;;;32.28;33.74;98685.50;4514581;31;34652;-82
2022/08/18 03:01:37;;;;;;;;;;;;;;;32.33;33.65;98691.31;4514696;31;34920;-82
2022/08/18 03:04:05;;;;;;;;;;;;;;;32.24;33.84;98692.09;4512850;31;34213;-82
2022/08/18 03:06:33;;;;;;;;;;;;;;;32.18;33.96;98696.13;4514630;31;33440;-82
2022/08/18 03:09:03;;;;;;;;;;;;;;;31.94;34.38;98692.84;4501482;31;34343;-82
2022/08/18 03:11:30;;;;;;;;;;;;;;;32.09;34.15;98701.44;4498515;31;34013;-82
2022/08/18 03:13:59;;;;;;;;;;;;;;;32.09;34.08;98701.44;4498746;31;33780;-82
2022/08/18 03:16:27;;;;;;;;;;;;;;;32.13;33.97;98693.00;4498613;31;33267;-82
2022/08/18 03:18:54;;;;;;;;;;;;;;;32.03;34.22;98702.78;4498297;31;34325;-82
2022/08/18 03:21:23;;;;;;;;;;;;;;;32.04;34.17;98698.25;4498484;31;35145;-82
2022/08/18 03:23:52;;;;;;;;;;;;;;;31.80;34.67;98701.97;4500505;31;34309;-82
2022/08/18 03:26:28;;;;;;;;;;;;;;;31.93;34.48;98694.62;4500580;31;32823;-82
2022/08/18 03:28:56;;;;;;;;;;;;;;;31.98;34.39;98689.75;4499023;31;34013;-82
2022/08/18 03:31:24;;;;;;;;;;;;;;;31.62;35.25;98690.91;4511534;31;34234;-82
2022/08/18 03:33:54;;;;;;;;;;;;;;;31.87;34.79;98695.16;4516300;31;34339;-82
2022/08/18 03:36:27;;;;;;;;;;;;;;;31.65;35.06;98697.87;4516356;31;33290;-82
2022/08/18 03:38:55;;;;;;;;;;;;;;;31.70;35.18;98690.28;4514862;31;35612;-83
2022/08/18 03:41:24;;;;;;;;;;;;;;;31.24;36.36;98686.78;4516055;31;35340;-82
2022/08/18 03:44:13;;;;;;;;;;;;;;;31.46;35.83;98677.91;4514967;31;34967;-82
2022/08/18 03:46:41;;;;;;;;;;;;;;;31.55;35.54;98687.03;4514951;31;34041;-82
2022/08/18 03:49:08;;;;;;;;;;;;;;;31.84;35.18;98695.38;4516090;31;34244;-82
2022/08/18 03:51:36;;;;;;;;;;;;;;;31.15;36.68;98692.03;4516238;31;35320;-82
2022/08/18 03:54:04;;;;;;;;;;;;;;;29.28;40.63;98696.25;4515746;31;35006;-82
2022/08/18 03:56:33;;;;;;;;;;;;;;;30.22;38.82;98686.72;4516012;31;33563;-82
2022/08/18 03:59:03;;;;;;;;;;;;;;;29.11;41.20;98693.91;4514811;31;34241;-82
2022/08/18 04:01:32;;;;;;;;;;;;;;;29.78;39.93;98696.22;4516170;31;35230;-82
2022/08/18 04:04:01;;;;;;;;;;;;;;;29.27;41.15;98701.66;4514846;31;33751;-82
2022/08/18 04:06:29;;;;;;;;;;;;;;;29.50;40.57;98698.19;4514975;31;33907;-82
2022/08/18 04:08:59;;;;;;;;;;;;;;;28.47;43.09;98699.19;4514738;31;33392;-82
2022/08/18 04:11:29;;;;;;;;;;;;;;;28.81;42.43;98695.06;4514812;31;34274;-83
2022/08/18 04:14:03;;;;;;;;;;;;;;;28.61;42.73;98704.44;4515930;31;34117;-82
2022/08/18 04:16:31;;;;;;;;;;;;;;;29.06;41.94;98698.72;4516072;31;34216;-82
2022/08/18 04:19:04;;;;;;;;;;;;;;;29.03;42.03;98699.78;4515795;31;33951;-82
2022/08/18 04:21:33;;;;;;;;;;;;;;;29.24;41.61;98700.06;4516336;31;35077;-82
2022/08/18 04:24:02;;;;;;;;;;;;;;;28.38;43.82;98698.97;4515818;31;33728;-82
2022/08/18 04:26:31;;;;;;;;;;;;;;;28.12;44.45;98701.53;4516037;31;33173;-82
2022/08/18 04:29:01;;;;;;;;;;;;;;;28.61;43.53;98701.78;4515403;31;34179;-82
2022/08/18 04:31:28;;;;;;;;;;;;;;;28.65;43.17;98707.75;4514697;31;33774;-82
2022/08/18 04:33:56;;;;;;;;;;;;;;;29.09;42.32;98699.38;4508335;31;33880;-82
2022/08/18 04:36:23;;;;;;;;;;;;;;;30.06;40.13;98695.88;4501595;31;33617;-82
2022/08/18 04:38:51;;;;;;;;;;;;;;;29.99;40.29;98693.78;4515513;31;33997;-82
2022/08/18 04:41:26;;;;;;;;;;;;;;;30.21;39.88;98690.37;4515821;31;34180;-82
2022/08/18 04:43:54;;;;;;;;;;;;;;;30.83;38.51;98697.25;4515529;31;35310;-82
2022/08/18 04:46:21;;;;;;;;;;;;;;;30.08;39.85;98702.91;4501370;31;34612;-82
2022/08/18 04:48:51;;;;;;;;;;;;;;;29.42;41.37;98700.56;4502168;31;34995;-83
2022/08/18 04:51:19;;;;;;;;;;;;;;;29.32;41.53;98699.50;4515613;31;34249;-82
2022/08/18 04:54:06;;;;;;;;;;;;;;;29.55;40.80;98706.75;4515726;31;34084;-82
2022/08/18 04:56:35;;;;;;;;;;;;;;;29.71;40.81;98708.34;4514418;31;34293;-83
2022/08/18 04:59:09;;;;;;;;;;;;;;;29.64;40.84;98699.91;4515499;31;34827;-81
2022/08/18 05:01:38;;;;;;;;;;;;;;;29.15;41.83;98697.22;4515651;31;34307;-85
2022/08/18 05:04:05;;;;;;;;;;;;;;;29.44;41.19;98701.31;4515286;31;34810;-81
2022/08/18 05:06:32;;;;;;;;;;;;;;;28.65;43.01;98704.25;4515257;31;34304;-83
2022/08/18 05:09:01;;;;;;;;;;;;;;;28.53;43.59;98712.13;4514185;31;33868;-83
2022/08/18 05:11:33;;;;;;;;;;;;;;;29.48;41.54;98700.13;4515388;31;35314;-82
2022/08/18 05:14:01;;;;;;;;;;;;;;;29.31;41.49;98692.47;4515198;31;34810;-82
2022/08/18 05:16:35;;;;;;;;;;;;;;;29.13;41.91;98691.13;4515565;31;34299;-82
2022/08/18 05:19:15;;;;;;;;;;;;;;;30.18;39.89;98690.59;4515535;31;34008;-83
2022/08/18 05:21:45;;;;;;;;;;;;;;;29.13;42.16;98699.97;4515235;31;34247;-82
2022/08/18 05:24:18;;;;;;;;;;;;;;;28.95;42.58;98696.78;4515329;31;34152;-82
2022/08/18 05:26:45;;;;;;;;;;;;;;;29.05;42.31;98705.84;4515114;31;34185;-81
2022/08/18 05:29:12;;;;;;;;;;;;;;;29.05;42.38;98710.34;4508958;31;34958;-82
2022/08/18 05:31:52;;;;;;;;;;;;;;;29.31;41.42;98708.50;4515083;31;35165;-82
2022/08/18 05:34:20;;;;;;;;;;;;;;;30.06;40.31;98711.91;4514076;31;33963;-82
2022/08/18 05:36:47;;;;;;;;;;;;;;;29.53;41.46;98707.81;4514871;31;33346;-80
2022/08/18 05:39:20;;;;;;;;;;;;;;;29.28;41.68;98714.03;4515219;31;34329;-81
2022/08/18 05:41:52;;;;;;;;;;;;;;;29.41;41.53;98709.56;4513927;31;34411;-81
2022/08/18 05:44:26;;;;;;;;;;;;;;;29.06;42.31;98717.41;4513421;31;34231;-81
2022/08/18 05:46:54;;;;;;;;;;;;;;;29.47;41.79;98717.12;4513416;31;34163;-81
2022/08/18 05:49:23;;;;;;;;;;;;;;;29.18;42.37;98708.53;4514029;31;33620;-82
2022/08/18 05:51:52;;;;;;;;;;;;;;;29.14;42.30;98712.37;4513956;31;34914;-81
2022/08/18 05:57:07;;;;;;;;;;;;;;;29.19;42.45;98720.06;4506526;31;34038;-82
2022/08/18 05:59:36;;;;;;;;;;;;;;;29.84;40.75;98717.12;4500312;31;35053;-82
2022/08/18 06:02:22;;;;;;;;;;;;;;;29.76;41.19;98720.37;4515120;31;34941;-82
2022/08/18 06:05:15;;;;;;;;;;;;;;;29.25;42.08;98711.63;4514936;31;34532;-82
2022/08/18 06:07:45;;;;;;;;;;;;;;;29.57;41.29;98710.19;4500814;31;32953;-82
2022/08/18 06:10:12;;;;;;;;;;;;;;;29.72;40.96;98721.56;4515507;31;34051;-82
2022/08/18 06:12:44;;;;;;;;;;;;;;;29.88;40.43;98723.97;4515104;31;34772;-82
2022/08/18 06:15:19;;;;;;;;;;;;;;;29.37;41.47;98726.75;4500906;31;34222;-82
2022/08/18 06:17:59;;;;;;;;;;;;;;;29.02;41.96;98730.13;4514996;31;32890;-82
2022/08/18 06:20:46;;;;;;;;;;;;;;;28.91;42.49;98721.97;4513659;31;34302;-81
2022/08/18 06:23:24;;;;;;;;;;;;;;;29.11;42.14;98725.94;4514980;31;34426;-81
2022/08/18 06:25:54;;;;;;;;;;;;;;;29.78;40.60;98722.94;4512860;31;35155;-80
2022/08/18 06:28:21;;;;;;;;;;;;;;;29.61;40.60;98720.66;4514913;31;33669;-81
2022/08/18 06:31:07;;;;;;;;;;;;;;;29.62;40.84;98720.53;4513935;31;34865;-83
2022/08/18 06:33:53;;;;;;;;;;;;;;;30.15;39.54;98720.19;4514436;31;34507;-82
2022/08/18 06:36:45;;;;;;;;;;;;;;;29.77;40.16;98721.22;4514608;31;34214;-82
2022/08/18 06:39:18;;;;;;;;;;;;;;;29.91;40.15;98721.06;4513691;31;33448;-81
2022/08/18 06:41:47;;;;;;;;;;;;;;;30.36;39.01;98723.97;4514779;31;35128;-83
2022/08/18 06:44:17;;;;;;;;;;;;;;;29.62;40.29;98723.19;4514581;31;34223;-82
2022/08/18 06:46:45;;;;;;;;;;;;;;;29.88;40.54;98729.31;4514862;31;34292;-81
2022/08/18 06:49:35;;;;;;;;;;;;;;;29.55;40.64;98728.13;4514784;31;32977;-82
2022/08/18 06:52:18;;;;;;;;;;;;;;;30.38;39.69;98727.38;4508518;31;34586;-82
2022/08/18 06:54:45;;;;;;;;;;;;;;;31.20;37.55;98719.31;4513682;31;34118;-81
2022/08/18 06:57:26;;;;;;;;;;;;;;;31.49;36.75;98704.47;4513433;31;33465;-82
2022/08/18 06:59:59;;;;;;;;;;;;;;;31.30;37.29;98704.25;4514645;31;33168;-83
2022/08/18 07:02:43;;;;;;;;;;;;;;;31.63;36.32;98708.72;4513759;31;34789;-81
2022/08/18 07:05:14;;;;;;;;;;;;;;;31.46;37.25;98704.72;4498490;31;34446;-82
2022/08/18 07:07:42;;;;;;;;;;;;;;;31.56;37.01;98703.94;4506062;31;34194;-82
2022/08/18 07:10:12;;;;;;;;;;;;;;;31.20;37.27;98703.22;4514234;31;33423;-82
2022/08/18 07:12:39;;;;;;;;;;;;;;;31.44;37.10;98701.31;4514470;31;35212;-82
2022/08/18 07:15:07;;;;;;;;;;;;;;;31.69;36.40;98705.53;4514563;31;34021;-82
2022/08/18 07:17:38;;;;;;;;;;;;;;;32.07;35.95;98714.09;4512861;31;34148;-82
2022/08/18 07:20:17;;;;;;;;;;;;;;;31.44;36.83;98701.31;4514295;31;33821;-83
2022/08/18 07:22:52;;;;;;;;;;;;;;;32.33;35.22;98707.41;4514265;31;34498;-82
2022/08/18 07:25:21;;;;;;;;;;;;;;;32.12;35.82;98706.50;4512958;31;34511;-82
2022/08/18 07:27:49;;;;;;;;;;;;;;;31.47;36.85;98701.03;4501850;31;33928;-82
2022/08/18 07:30:18;;;;;;;;;;;;;;;32.18;35.03;98706.84;4511193;31;34060;-82
2022/08/18 07:32:56;;;;;;;;;;;;;;;32.20;34.60;98709.41;4513351;31;34017;-79
2022/08/18 07:35:24;;;;;;;;;;;;;;;32.33;33.97;98694.00;4505450;31;35250;-82
2022/08/18 07:37:54;;;;;;;;;;;;;;;32.57;34.04;98700.97;4512882;31;34594;-82
2022/08/18 07:40:26;;;;;;;;;;;;;;;32.19;34.21;98702.34;4512740;31;33181;-82
2022/08/18 07:42:57;;;;;;;;;;;;;;;32.99;33.58;98691.06;4512698;31;34260;-82
2022/08/18 07:45:31;;;;;;;;;;;;;;;33.27;32.86;98705.63;4513921;31;34477;-83
2022/08/18 07:48:18;;;;;;;;;;;;;;;32.42;33.57;98714.69;4513499;31;34154;-82
2022/08/18 07:51:19;;;;;;;;;;;;;;;32.64;33.21;98711.03;4513882;31;34001;-82
2022/08/18 07:53:53;;;;;;;;;;;;;;;33.01;33.16;98707.06;4512462;31;34818;-81
2022/08/18 07:56:27;;;;;;;;;;;;;;;32.41;33.84;98728.25;4512570;31;35198;-82
2022/08/18 07:58:55;;;;;;;;;;;;;;;33.67;32.25;98716.38;4501904;31;34385;-82
2022/08/18 08:01:25;;;;;;;;;;;;;;;34.04;31.43;98723.00;4513581;31;33313;-81
2022/08/18 08:03:55;;;;;;;;;;;;;;;33.74;31.09;98714.00;4505820;31;35028;-80
2022/08/18 08:06:52;;;;;;;;;;;;;;;32.82;33.14;98740.00;4496752;31;34239;-82
2022/08/18 08:09:46;;;;;;;;;;;;;;;33.06;32.70;98745.09;4503683;31;34731;-82
2022/08/18 08:12:18;;;;;;;;;;;;;;;33.53;32.00;98748.19;4515535;31;33571;-81
2022/08/18 08:14:46;;;;;;;;;;;;;;;33.51;31.80;98751.00;4512225;31;33723;-82
2022/08/18 08:17:22;;;;;;;;;;;;;;;32.74;32.59;98758.59;4500001;31;33922;-82
2022/08/18 08:19:52;;;;;;;;;;;;;;;32.86;32.61;98762.91;4515774;31;34886;-81
2022/08/18 08:22:48;;;;;;;;;;;;;;;33.75;31.08;98758.69;4515069;31;34269;-83
2022/08/18 08:25:15;;;;;;;;;;;;;;;33.88;31.25;98763.84;4515712;31;34236;-81
2022/08/18 08:28:11;;;;;;;;;;;;;;;34.14;30.41;98758.81;4515874;31;34167;-83
2022/08/18 08:30:45;;;;;;;;;;;;;;;33.91;31.22;98755.50;4514281;31;33838;-82
2022/08/18 08:33:32;;;;;;;;;;;;;;;34.36;30.91;98750.50;4512550;31;34232;-82
2022/08/18 08:35:59;;;;;;;;;;;;;;;35.55;28.69;98749.16;4515719;31;34193;-82
2022/08/18 08:38:33;;;;;;;;;;;;;;;35.47;28.86;98756.25;4515806;31;35268;-83
2022/08/18 08:41:19;;;;;;;;;;;;;;;34.21;30.09;98749.22;4514480;31;34797;-81
2022/08/18 08:43:48;;;;;;;;;;;;;;;35.19;28.87;98737.34;4513834;31;33287;-81
2022/08/18 08:46:20;;;;;;;;;;;;;;;35.95;28.30;98728.19;4514368;31;35101;-83
2022/08/18 08:49:06;;;;;;;;;;;;;;;35.92;27.64;98728.50;4514357;31;34132;-81
2022/08/18 08:51:33;;;;;;;;;;;;;;;35.66;28.32;98723.00;4515697;31;33545;-81
2022/08/18 08:54:06;;;;;;;;;;;;;;;35.62;28.34;98730.53;4514792;31;34034;-82
2022/08/18 08:56:34;;;;;;;;;;;;;;;36.07;27.23;98729.72;4514292;31;34776;-87
2022/08/18 08:59:12;;;;;;;;;;;;;;;36.12;27.32;98727.41;4514210;31;34279;-81
2022/08/18 09:01:39;;;;;;;;;;;;;;;34.98;28.19;98720.53;4514408;31;34228;-82
2022/08/18 09:04:13;;;;;;;;;;;;;;;35.04;28.54;98730.72;4515145;31;33217;-82
2022/08/18 09:06:46;;;;;;;;;;;;;;;35.49;27.81;98721.91;4515627;31;34062;-82
2022/08/18 09:09:23;;;;;;;;;;;;;;;35.20;28.30;98714.81;4514608;31;35441;-81
2022/08/18 09:12:20;;;;;;;;;;;;;;;35.13;28.26;98713.69;4515579;31;34246;-86
2022/08/18 09:14:55;;;;;;;;;;;;;;;35.00;28.31;98719.41;4458084;31;34080;-82
2022/08/18 09:17:32;;;;;;;;;;;;;;;36.00;27.04;98715.13;4514250;31;34152;-82
2022/08/18 09:20:06;;;;;;;;;;;;;;;35.53;27.96;98721.47;4498678;31;34289;-82
2022/08/18 09:22:43;;;;;;;;;;;;;;;36.24;27.08;98709.12;4499473;31;34402;-80
2022/08/18 09:25:11;;;;;;;;;;;;;;;36.71;26.01;98707.00;4499226;31;33288;-82
2022/08/18 09:27:42;;;;;;;;;;;;;;;36.21;26.49;98710.25;4499034;31;34866;-80
2022/08/18 09:30:48;;;;;;;;;;;;;;;36.46;26.59;98708.66;4515162;31;35355;-81
2022/08/18 09:33:30;;;;;;;;;;;;;;;35.98;26.48;98720.66;4515343;31;34279;-81
2022/08/18 09:35:58;;;;;;;;;;;;;;;36.71;24.83;98711.53;4515148;31;33330;-81
2022/08/18 09:41:31;;;;;;;;;;;;;;;36.28;26.19;98697.00;4515300;31;34140;-81
2022/08/18 09:44:11;;;;;;;;;;;;;;;37.21;24.70;98690.09;4514589;31;34018;-81
2022/08/18 09:46:54;;;;;;;;;;;;;;;35.81;26.38;98687.25;4507473;31;33211;-81
2022/08/18 09:49:22;;;;;;;;;;;;;;;36.07;26.35;98683.84;4513910;31;35058;-81
2022/08/18 09:51:50;;;;;;;;;;;;;;;35.28;26.33;98679.03;4515484;31;34385;-81
2022/08/18 09:54:19;;;;;;;;;;;;;;;36.65;25.36;98669.81;4513711;31;34913;-80
2022/08/18 09:56:50;;;;;;;;;;;;;;;36.18;25.26;98670.13;4513507;31;33546;-82
2022/08/18 09:59:30;;;;;;;;;;;;;;;35.97;25.72;98672.25;4510131;31;35571;-82
2022/08/18 10:02:09;;;;;;;;;;;;;;;36.78;24.17;98661.28;4500659;31;35035;-79
2022/08/18 10:04:52;;;;;;;;;;;;;;;37.01;23.93;98648.09;4511791;31;33703;-80
2022/08/18 10:07:21;;;;;;;;;;;;;;;36.81;24.67;98649.31;4513251;31;33560;-81
2022/08/18 10:10:11;;;;;;;;;;;;;;;37.03;24.49;98639.84;4513989;31;34101;-81
2022/08/18 10:13:16;;;;;;;;;;;;;;;36.83;24.34;98645.47;4513562;31;36175;-80
2022/08/18 10:16:04;;;;;;;;;;;;;;;36.17;25.60;98646.81;4513704;31;35111;-82
2022/08/18 10:18:40;;;;;;;;;;;;;;;36.57;25.04;98661.66;4514987;31;33409;-83
2022/08/18 10:21:20;;;;;;;;;;;;;;;36.23;24.49;98656.16;4514366;31;35047;-81
2022/08/18 10:24:08;;;;;;;;;;;;;;;37.12;23.43;98655.91;4498520;31;34836;-80
2022/08/18 10:26:55;;;;;;;;;;;;;;;36.86;24.76;98655.06;4499079;31;33819;-81
2022/08/18 10:29:22;;;;;;;;;;;;;;;37.41;23.83;98652.00;4499083;31;33835;-80
2022/08/18 10:31:55;;;;;;;;;;;;;;;36.48;24.71;98657.19;4506335;31;35256;-84
2022/08/18 10:34:37;;;;;;;;;;;;;;;37.61;23.76;98644.47;4514831;31;35345;-81
2022/08/18 10:37:25;;;;;;;;;;;;;;;37.95;23.20;98641.66;4515231;31;34179;-85
2022/08/18 10:39:54;;;;;;;;;;;;;;;37.30;23.28;98658.53;4513307;31;33174;-81
2022/08/18 10:42:21;;;;;;;;;;;;;;;37.93;22.51;98647.25;4514366;31;34120;-80
2022/08/18 10:44:49;;;;;;;;;;;;;;;38.10;22.92;98637.28;4514825;31;34405;-81
2022/08/18 10:47:25;;;;;;;;;;;;;;;37.05;23.23;98651.31;4513186;31;34398;-81
2022/08/18 10:50:02;;;;;;;;;;;;;;;36.90;23.50;98645.63;4514885;31;33334;-81
2022/08/18 10:53:05;;;;;;;;;;;;;;;37.63;22.25;98637.03;4513405;31;34477;-80
2022/08/18 10:55:55;;;;;;;;;;;;;;;37.34;22.45;98635.56;4448830;32;34218;-81
2022/08/18 10:58:42;;;;;;;;;;;;;;;37.12;23.28;98637.00;4509550;31;34995;-81
2022/08/18 11:01:28;;;;;;;;;;;;;;;37.60;22.72;98640.91;4497557;31;33051;-80
2022/08/18 11:04:07;;;;;;;;;;;;;;;38.06;22.22;98635.94;4499149;31;34467;-80
2022/08/18 11:06:49;;;;;;;;;;;;;;;37.10;22.92;98630.09;4514375;31;34065;-81
2022/08/18 11:09:23;;;;;;;;;;;;;;;38.05;22.33;98626.12;4512905;31;34231;-81
2022/08/18 11:11:53;;;;;;;;;;;;;;;38.12;21.74;98635.25;4514756;31;34254;-80
2022/08/18 11:14:26;;;;;;;;;;;;;;;38.27;21.72;98621.06;4514269;31;35045;-81
2022/08/18 11:17:12;;;;;;;;;;;;;;;37.50;22.58;98624.81;4514229;31;35248;-81
2022/08/18 11:19:42;;;;;;;;;;;;;;;38.16;22.19;98628.50;4513389;31;34955;-82
2022/08/18 11:22:30;;;;;;;;;;;;;;;38.54;21.64;98625.28;4512958;31;34077;-82
2022/08/18 11:25:00;;;;;;;;;;;;;;;38.80;21.27;98616.97;4513069;31;33793;-82
2022/08/18 11:27:31;;;;;;;;;;;;;;;39.16;20.95;98610.00;4513426;31;33979;-82
2022/08/18 11:30:00;;;;;;;;;;;;;;;38.98;21.30;98608.56;4512163;31;34939;-82
2022/08/18 11:32:29;;;;;;;;;;;;;;;37.49;22.48;98606.91;4512702;31;33089;-81
2022/08/18 11:34:59;;;;;;;;;;;;;;;38.05;22.34;98604.47;4514133;31;35066;-81
2022/08/18 11:37:32;;;;;;;;;;;;;;;37.66;22.31;98599.69;4513992;31;34049;-85
2022/08/18 11:40:20;;;;;;;;;;;;;;;37.65;22.72;98586.31;4513508;31;34553;-80
2022/08/18 11:43:12;;;;;;;;;;;;;;;37.67;22.51;98587.84;4514831;31;33419;-81
2022/08/18 11:45:45;;;;;;;;;;;;;;;37.78;22.14;98580.44;4515079;31;34936;-82
2022/08/18 11:48:12;;;;;;;;;;;;;;;37.78;22.09;98572.31;4516545;31;34057;-81
2022/08/18 11:51:01;;;;;;;;;;;;;;;38.09;22.26;98576.06;4515964;31;34968;-81
2022/08/18 11:53:31;;;;;;;;;;;;;;;37.90;22.26;98579.09;4514786;31;34182;-81
2022/08/18 11:56:19;;;;;;;;;;;;;;;37.92;22.40;98588.75;4509651;31;33641;-81
2022/08/18 11:59:02;;;;;;;;;;;;;;;39.01;20.66;98571.13;4500257;31;34581;-82
2022/08/18 12:01:50;;;;;;;;;;;;;;;39.04;20.93;98559.94;4506886;31;33931;-81
2022/08/18 12:04:18;;;;;;;;;;;;;;;39.07;21.33;98567.72;4515876;31;34019;-83
2022/08/18 12:06:52;;;;;;;;;;;;;;;38.16;22.11;98566.22;4515584;31;35068;-82
2022/08/18 12:09:35;;;;;;;;;;;;;;;38.21;21.95;98560.31;4515735;31;33817;-82
2022/08/18 12:12:23;;;;;;;;;;;;;;;38.44;21.30;98552.31;4515979;31;33978;-82
2022/08/18 12:15:02;;;;;;;;;;;;;;;37.58;21.98;98556.41;4515922;31;34139;-82
2022/08/18 12:17:44;;;;;;;;;;;;;;;37.72;21.77;98558.44;4514717;31;34179;-82
2022/08/18 12:20:20;;;;;;;;;;;;;;;38.07;21.55;98534.75;4514961;31;34167;-82
2022/08/18 12:22:48;;;;;;;;;;;;;;;38.79;21.12;98537.50;4515824;31;34981;-86
2022/08/18 12:25:16;;;;;;;;;;;;;;;37.70;20.93;98535.28;4515791;31;33626;-82
2022/08/18 12:28:04;;;;;;;;;;;;;;;39.00;19.57;98517.94;4515939;31;34209;-84
2022/08/18 12:30:37;;;;;;;;;;;;;;;37.98;20.55;98530.37;4515661;31;34524;-82
2022/08/18 12:33:08;;;;;;;;;;;;;;;38.49;20.11;98525.56;4515869;31;34245;-82
2022/08/18 12:35:39;;;;;;;;;;;;;;;39.38;19.16;98513.50;4516007;31;33586;-82
2022/08/18 12:38:08;;;;;;;;;;;;;;;39.41;19.22;98515.00;4514882;31;35073;-82
2022/08/18 12:40:40;;;;;;;;;;;;;;;39.09;19.31;98526.88;4515942;31;34474;-82
2022/08/18 12:43:07;;;;;;;;;;;;;;;39.68;19.24;98532.63;4515569;31;35048;-82
2022/08/18 12:45:36;;;;;;;;;;;;;;;38.91;19.09;98535.28;4514748;31;33428;-82
2022/08/18 12:48:05;;;;;;;;;;;;;;;39.22;19.22;98531.72;4515795;31;34183;-82
2022/08/18 12:50:33;;;;;;;;;;;;;;;38.65;19.68;98538.22;4515518;31;34503;-84
2022/08/18 12:53:22;;;;;;;;;;;;;;;37.97;20.24;98547.66;4515776;31;34982;-83
2022/08/18 12:56:22;;;;;;;;;;;;;;;38.80;19.61;98552.75;4488649;31;882647;-82
2022/08/18 12:59:09;;;;;;;;;;;;;;;39.57;18.43;98544.72;4514674;31;33920;-82
2022/08/18 13:01:37;;;;;;;;;;;;;;;40.00;18.12;98565.94;4515831;31;34779;-82
2022/08/18 13:04:06;;;;;;;;;;;;;;;38.89;18.94;98558.97;4514222;31;34271;-83
2022/08/18 13:06:43;;;;;;;;;;;;;;;39.99;17.75;98553.41;4514396;31;33317;-82
2022/08/18 13:09:27;;;;;;;;;;;;;;;40.39;17.80;98560.34;4514449;31;34240;-82
2022/08/18 13:12:14;;;;;;;;;;;;;;;40.82;16.77;98550.53;4515483;31;35126;-82
2022/08/18 13:14:43;;;;;;;;;;;;;;;40.54;16.96;98554.94;4515709;31;35048;-82
2022/08/18 13:17:11;;;;;;;;;;;;;;;40.16;16.96;98548.69;4515421;31;33312;-82
2022/08/18 13:19:59;;;;;;;;;;;;;;;40.40;16.86;98548.44;4515209;31;34130;-82
2022/08/18 13:22:28;;;;;;;;;;;;;;;40.00;16.46;98558.63;4515511;31;33673;-82
2022/08/18 13:25:00;;;;;;;;;;;;;;;39.82;16.90;98553.56;4515365;31;35024;-83
2022/08/18 13:27:27;;;;;;;;;;;;;;;39.40;17.87;98556.69;4514411;31;33580;-82
2022/08/18 13:30:06;;;;;;;;;;;;;;;39.96;17.13;98560.03;4515569;31;34259;-83
2022/08/18 13:32:53;;;;;;;;;;;;;;;39.92;17.84;98553.28;4514535;31;34328;-82
2022/08/18 13:35:29;;;;;;;;;;;;;;;39.43;17.79;98545.50;4515294;31;34337;-87
2022/08/18 13:38:05;;;;;;;;;;;;;;;39.58;17.55;98546.41;4515508;31;33362;-82